createdAt,value
2017-11-16T00:01:58.292Z,60.00
2017-11-16T00:04:26.603Z,60.10
2017-11-16T00:06:54.153Z,60.10
2017-11-16T00:09:21.681Z,60.40
2017-11-16T00:11:49.993Z,60.10
2017-11-16T00:14:17.550Z,60.10
2017-11-16T00:16:45.069Z,60.00
2017-11-16T00:19:12.659Z,60.30
2017-11-16T00:21:40.254Z,60.10
2017-11-16T00:24:07.835Z,60.40
2017-11-16T00:26:35.341Z,60.20
2017-11-16T00:29:02.869Z,60.10
2017-11-16T00:31:30.450Z,59.90
2017-11-16T00:33:57.974Z,59.80
2017-11-16T00:36:26.274Z,59.90
2017-11-16T00:38:53.840Z,59.80
2017-11-16T00:41:22.146Z,59.80
2017-11-16T00:43:49.782Z,59.70
2017-11-16T00:46:17.335Z,59.50
2017-11-16T00:48:44.879Z,59.90
2017-11-16T00:51:12.470Z,59.50
2017-11-16T00:53:40.087Z,59.80
2017-11-16T00:56:07.618Z,59.30
2017-11-16T00:58:35.196Z,59.30
2017-11-16T01:01:03.500Z,59.00
2017-11-16T01:03:31.011Z,59.00
2017-11-16T01:05:58.651Z,59.20
2017-11-16T01:08:26.192Z,59.20
2017-11-16T01:10:53.747Z,59.00
2017-11-16T01:13:21.355Z,59.10
2017-11-16T01:15:49.652Z,59.20
2017-11-16T01:18:17.195Z,59.20
2017-11-16T01:20:45.611Z,59.40
2017-11-16T01:23:13.125Z,59.30
2017-11-16T01:25:41.458Z,59.60
2017-11-16T01:28:09.037Z,59.50
2017-11-16T01:30:36.598Z,59.30
2017-11-16T01:33:04.982Z,60.10
2017-11-16T01:35:32.546Z,59.70
2017-11-16T01:38:00.878Z,59.60
2017-11-16T01:40:28.395Z,59.50
2017-11-16T01:42:57.705Z,59.70
2017-11-16T01:45:25.243Z,59.70
2017-11-16T01:47:53.541Z,59.60
2017-11-16T01:50:21.103Z,59.50
2017-11-16T01:52:48.652Z,59.70
2017-11-16T01:55:16.175Z,59.50
2017-11-16T01:57:43.788Z,59.20
2017-11-16T02:00:11.356Z,59.50
2017-11-16T02:02:40.542Z,59.20
2017-11-16T02:05:08.101Z,59.30
2017-11-16T02:07:35.623Z,59.30
2017-11-16T02:10:03.908Z,58.80
2017-11-16T02:12:31.464Z,58.70
2017-11-16T02:14:58.987Z,58.90
2017-11-16T02:17:26.526Z,59.30
2017-11-16T02:19:54.047Z,59.10
2017-11-16T02:22:21.632Z,59.30
2017-11-16T02:24:49.166Z,59.20
2017-11-16T02:27:16.693Z,58.90
2017-11-16T02:29:45.005Z,60.90
2017-11-16T02:32:12.542Z,60.60
2017-11-16T02:34:40.131Z,62.20
2017-11-16T02:37:07.714Z,63.10
2017-11-16T02:39:35.267Z,63.50
2017-11-16T02:42:02.800Z,63.90
2017-11-16T02:44:30.378Z,64.00
2017-11-16T02:46:57.893Z,63.90
2017-11-16T02:49:25.470Z,63.70
2017-11-16T02:51:53.034Z,64.00
2017-11-16T02:54:20.575Z,64.30
2017-11-16T02:56:48.092Z,64.50
2017-11-16T02:59:15.667Z,64.50
2017-11-16T03:01:43.954Z,63.80
2017-11-16T03:04:11.491Z,63.80
2017-11-16T03:06:39.840Z,63.80
2017-11-16T03:09:07.365Z,63.80
2017-11-16T03:11:34.886Z,63.50
2017-11-16T03:14:03.204Z,63.60
2017-11-16T03:16:30.772Z,63.50
2017-11-16T03:18:58.351Z,63.60
2017-11-16T03:21:25.928Z,63.50
2017-11-16T03:23:54.222Z,64.10
2017-11-16T03:26:21.755Z,64.00
2017-11-16T03:28:50.112Z,63.90
2017-11-16T03:31:17.641Z,63.90
2017-11-16T03:33:45.202Z,64.20
2017-11-16T03:36:12.784Z,63.80
2017-11-16T03:38:40.340Z,63.50
2017-11-16T03:41:07.898Z,63.50
2017-11-16T03:43:35.434Z,63.70
2017-11-16T03:46:02.990Z,63.70
2017-11-16T03:48:30.518Z,63.70
2017-11-16T03:50:58.810Z,64.00
2017-11-16T03:53:26.365Z,64.00
2017-11-16T03:55:53.910Z,64.10
2017-11-16T03:58:21.443Z,63.80
2017-11-16T04:00:49.019Z,64.00
2017-11-16T04:03:17.344Z,64.20
2017-11-16T04:05:44.869Z,64.10
2017-11-16T04:08:12.454Z,64.40
2017-11-16T04:10:40.014Z,64.40
2017-11-16T04:13:07.562Z,64.60
2017-11-16T04:15:35.167Z,64.40
2017-11-16T04:18:02.685Z,64.40
2017-11-16T04:20:30.214Z,64.50
2017-11-16T04:22:58.087Z,64.80
2017-11-16T04:25:25.619Z,64.70
2017-11-16T04:27:53.952Z,64.80
2017-11-16T04:30:21.490Z,64.70
2017-11-16T04:32:49.003Z,65.00
2017-11-16T04:35:17.314Z,64.90
2017-11-16T04:37:44.829Z,64.90
2017-11-16T04:40:12.366Z,64.90
2017-11-16T04:42:39.916Z,64.40
2017-11-16T04:45:07.454Z,63.00
2017-11-16T04:47:34.987Z,63.60
2017-11-16T04:50:02.541Z,63.50
2017-11-16T04:52:30.063Z,63.20
2017-11-16T04:54:57.620Z,63.20
2017-11-16T04:57:25.157Z,63.20
2017-11-16T04:59:52.731Z,63.70
2017-11-16T05:02:20.335Z,64.20
2017-11-16T05:04:48.644Z,63.40
2017-11-16T05:07:16.212Z,63.40
2017-11-16T05:09:43.779Z,63.70
2017-11-16T05:12:11.317Z,64.10
2017-11-16T05:14:38.844Z,65.30
2017-11-16T05:17:06.404Z,65.30
2017-11-16T05:19:33.939Z,65.10
2017-11-16T05:22:02.275Z,63.20
2017-11-16T05:24:29.839Z,63.20
2017-11-16T05:26:57.412Z,63.70
2017-11-16T05:29:24.982Z,63.60
2017-11-16T05:31:56.759Z,63.50
2017-11-16T05:34:24.318Z,63.40
2017-11-16T05:36:51.862Z,63.90
2017-11-16T05:39:19.643Z,63.90
2017-11-16T05:41:47.199Z,64.60
2017-11-16T05:44:14.778Z,63.90
2017-11-16T05:46:42.318Z,63.30
2017-11-16T05:49:09.863Z,63.80
2017-11-16T05:51:37.426Z,64.60
2017-11-16T05:54:08.741Z,64.90
2017-11-16T05:56:36.319Z,64.60
2017-11-16T05:59:04.894Z,65.20
2017-11-16T06:01:38.368Z,64.90
2017-11-16T06:04:05.921Z,64.90
2017-11-16T06:06:33.922Z,65.00
2017-11-16T06:09:16.147Z,64.80
2017-11-16T06:11:47.760Z,64.90
2017-11-16T06:14:15.373Z,64.60
2017-11-16T06:16:42.944Z,64.70
2017-11-16T06:19:10.483Z,64.60
2017-11-16T06:21:38.826Z,64.70
2017-11-16T06:24:06.405Z,64.70
2017-11-16T06:26:34.706Z,64.40
2017-11-16T06:29:02.324Z,64.40
2017-11-16T06:31:30.748Z,64.40
2017-11-16T06:33:58.310Z,64.40
2017-11-16T06:36:25.851Z,64.50
2017-11-16T06:38:53.474Z,64.00
2017-11-16T06:41:21.050Z,64.70
2017-11-16T06:43:48.585Z,64.70
2017-11-16T06:46:16.116Z,64.70
2017-11-16T06:48:43.681Z,64.70
2017-11-16T06:51:11.211Z,64.90
2017-11-16T06:53:38.782Z,64.00
2017-11-16T06:56:06.383Z,64.60
2017-11-16T06:58:33.973Z,65.00
2017-11-16T07:01:02.296Z,64.40
2017-11-16T07:03:33.361Z,64.30
2017-11-16T07:06:00.961Z,64.30
2017-11-16T07:08:28.548Z,64.90
2017-11-16T07:10:56.099Z,65.40
2017-11-16T07:13:23.681Z,64.20
2017-11-16T07:15:51.227Z,64.00
2017-11-16T07:18:18.809Z,64.10
2017-11-16T07:20:46.384Z,63.80
2017-11-16T07:23:14.707Z,64.40
2017-11-16T07:25:42.243Z,64.40
2017-11-16T07:28:09.841Z,64.50
2017-11-16T07:30:37.409Z,64.30
2017-11-16T07:33:04.992Z,63.70
2017-11-16T07:35:33.349Z,64.80
2017-11-16T07:38:00.901Z,64.70
2017-11-16T07:40:28.494Z,64.60
2017-11-16T07:42:56.796Z,64.40
2017-11-16T07:45:24.384Z,64.30
2017-11-16T07:47:51.950Z,64.30
2017-11-16T07:50:19.530Z,64.40
2017-11-16T07:52:47.148Z,65.10
2017-11-16T07:55:14.680Z,64.00
2017-11-16T07:57:42.296Z,64.80
2017-11-16T08:00:09.917Z,64.60
2017-11-16T08:02:37.465Z,65.40
2017-11-16T08:05:05.052Z,64.80
2017-11-16T08:07:32.649Z,65.00
2017-11-16T08:10:01.013Z,64.30
2017-11-16T08:12:28.585Z,64.20
2017-11-16T08:14:56.965Z,64.40
2017-11-16T08:17:24.571Z,64.40
2017-11-16T08:19:52.130Z,64.90
2017-11-16T08:22:19.723Z,64.70
2017-11-16T08:24:47.314Z,64.30
2017-11-16T08:27:14.874Z,64.40
2017-11-16T08:29:42.463Z,63.80
2017-11-16T08:32:10.100Z,65.00
2017-11-16T08:34:37.720Z,64.90
2017-11-16T08:37:05.334Z,64.40
2017-11-16T08:39:32.902Z,65.20
2017-11-16T08:42:00.489Z,64.80
2017-11-16T08:44:28.057Z,65.10
2017-11-16T08:46:56.452Z,65.70
2017-11-16T08:49:24.792Z,65.80
2017-11-16T08:51:52.401Z,65.80
2017-11-16T08:54:19.965Z,65.50
2017-11-16T08:56:47.585Z,64.70
2017-11-16T08:59:15.140Z,64.80
2017-11-16T09:01:46.408Z,64.20
2017-11-16T09:04:14.702Z,65.60
2017-11-16T09:06:42.649Z,65.60
2017-11-16T09:09:11.036Z,65.30
2017-11-16T09:11:38.606Z,65.30
2017-11-16T09:14:06.174Z,64.80
2017-11-16T09:16:33.748Z,64.30
2017-11-16T09:19:01.352Z,65.20
2017-11-16T09:21:29.752Z,65.90
2017-11-16T09:23:57.287Z,65.80
2017-11-16T09:26:24.889Z,64.90
2017-11-16T09:28:52.458Z,65.30
2017-11-16T09:31:20.001Z,64.90
2017-11-16T09:33:47.598Z,66.10
2017-11-16T09:36:15.155Z,65.70
2017-11-16T09:38:42.840Z,65.60
2017-11-16T09:41:10.426Z,65.30
2017-11-16T09:43:37.972Z,65.00
2017-11-16T09:46:05.593Z,65.60
2017-11-16T09:48:33.140Z,65.40
2017-11-16T09:51:00.750Z,66.40
2017-11-16T09:53:28.319Z,66.60
2017-11-16T09:55:55.929Z,66.50
2017-11-16T09:58:23.542Z,66.30
2017-11-16T10:00:51.124Z,65.90
2017-11-16T10:03:18.693Z,65.80
2017-11-16T10:05:46.232Z,65.80
2017-11-16T10:08:13.803Z,65.60
2017-11-16T10:10:41.357Z,65.30
2017-11-16T10:13:08.984Z,64.30
2017-11-16T10:15:36.522Z,64.10
2017-11-16T10:18:04.889Z,64.40
2017-11-16T10:20:33.250Z,64.40
2017-11-16T10:23:00.801Z,64.40
2017-11-16T10:25:37.359Z,63.70
2017-11-16T10:28:04.931Z,63.40
2017-11-16T10:30:32.485Z,64.30
2017-11-16T10:33:00.104Z,64.40
2017-11-16T10:35:27.709Z,64.20
2017-11-16T10:37:55.559Z,63.90
2017-11-16T10:40:23.118Z,62.90
2017-11-16T10:42:50.720Z,62.70
2017-11-16T10:45:18.327Z,63.40
2017-11-16T10:47:45.906Z,62.70
2017-11-16T10:50:14.233Z,62.60
2017-11-16T10:52:42.615Z,63.70
2017-11-16T10:55:10.429Z,63.70
2017-11-16T10:57:37.955Z,64.10
2017-11-16T11:00:05.484Z,63.10
2017-11-16T11:02:33.055Z,63.00
2017-11-16T11:05:00.650Z,64.10
2017-11-16T11:07:28.954Z,65.10
2017-11-16T11:09:57.261Z,62.60
2017-11-16T11:12:24.843Z,62.60
2017-11-16T11:14:54.202Z,63.70
2017-11-16T11:17:21.798Z,63.60
2017-11-16T11:19:49.390Z,64.80
2017-11-16T11:22:17.731Z,65.50
2017-11-16T11:24:45.613Z,65.40
2017-11-16T11:27:13.113Z,65.00
2017-11-16T11:29:40.662Z,64.60
2017-11-16T11:32:09.120Z,63.90
2017-11-16T11:34:36.885Z,63.90
2017-11-16T11:37:04.470Z,64.10
2017-11-16T11:39:32.070Z,64.10
2017-11-16T11:41:59.652Z,63.40
2017-11-16T11:44:27.257Z,63.40
2017-11-16T11:46:54.862Z,63.20
2017-11-16T11:49:23.047Z,63.50
2017-11-16T11:52:01.670Z,63.40
2017-11-16T11:54:51.096Z,63.30
